sensor_id;sensor_type;location;lat;lon;timestamp;P1;durP1;ratioP1;P2;durP2;ratioP2
28587;SDS011;15787;49.662;10.162;2023-03-01T00:00:26;28.10;;;13.25;;
28587;SDS011;15787;49.662;10.162;2023-03-01T00:02:59;26.85;;;13.50;;
28587;SDS011;15787;49.662;10.162;2023-03-01T00:05:32;28.13;;;13.52;;
28587;SDS011;15787;49.662;10.162;2023-03-01T00:08:08;26.90;;;14.18;;
28587;SDS011;15787;49.662;10.162;2023-03-01T00:10:40;26.70;;;12.38;;
28587;SDS011;15787;49.662;10.162;2023-03-01T00:13:14;27.77;;;11.70;;
28587;SDS011;15787;49.662;10.162;2023-03-01T00:15:46;24.65;;;11.35;;
28587;SDS011;15787;49.662;10.162;2023-03-01T00:18:20;23.27;;;11.85;;
28587;SDS011;15787;49.662;10.162;2023-03-01T00:20:54;20.45;;;10.23;;
28587;SDS011;15787;49.662;10.162;2023-03-01T00:23:30;27.55;;;12.75;;
28587;SDS011;15787;49.662;10.162;2023-03-01T00:26:05;24.63;;;12.07;;
28587;SDS011;15787;49.662;10.162;2023-03-01T00:28:40;27.42;;;11.20;;
28587;SDS011;15787;49.662;10.162;2023-03-01T00:31:14;23.02;;;11.88;;
28587;SDS011;15787;49.662;10.162;2023-03-01T00:33:51;26.05;;;11.15;;
28587;SDS011;15787;49.662;10.162;2023-03-01T00:36:29;24.83;;;11.45;;
28587;SDS011;15787;49.662;10.162;2023-03-01T00:39:07;22.10;;;10.02;;
28587;SDS011;15787;49.662;10.162;2023-03-01T00:41:44;26.93;;;11.03;;
28587;SDS011;15787;49.662;10.162;2023-03-01T00:44:17;23.88;;;12.02;;
28587;SDS011;15787;49.662;10.162;2023-03-01T00:46:50;22.55;;;10.45;;
28587;SDS011;15787;49.662;10.162;2023-03-01T00:49:23;23.23;;;10.10;;
28587;SDS011;15787;49.662;10.162;2023-03-01T00:52:00;24.60;;;11.40;;
28587;SDS011;15787;49.662;10.162;2023-03-01T00:54:34;20.95;;;10.98;;
28587;SDS011;15787;49.662;10.162;2023-03-01T00:57:07;26.88;;;11.45;;
28587;SDS011;15787;49.662;10.162;2023-03-01T00:59:40;26.63;;;11.98;;
28587;SDS011;15787;49.662;10.162;2023-03-01T01:02:13;24.35;;;11.60;;
28587;SDS011;15787;49.662;10.162;2023-03-01T01:04:46;22.55;;;11.20;;
28587;SDS011;15787;49.662;10.162;2023-03-01T01:07:20;23.65;;;11.55;;
28587;SDS011;15787;49.662;10.162;2023-03-01T01:09:54;23.73;;;11.15;;
28587;SDS011;15787;49.662;10.162;2023-03-01T01:12:27;22.42;;;11.80;;
28587;SDS011;15787;49.662;10.162;2023-03-01T01:15:00;25.20;;;12.80;;
28587;SDS011;15787;49.662;10.162;2023-03-01T01:17:33;23.75;;;11.40;;
28587;SDS011;15787;49.662;10.162;2023-03-01T01:20:07;22.95;;;11.57;;
28587;SDS011;15787;49.662;10.162;2023-03-01T01:22:41;28.40;;;11.35;;
28587;SDS011;15787;49.662;10.162;2023-03-01T01:25:16;22.85;;;10.32;;
28587;SDS011;15787;49.662;10.162;2023-03-01T01:27:50;25.38;;;11.80;;
28587;SDS011;15787;49.662;10.162;2023-03-01T01:30:23;21.73;;;11.50;;
28587;SDS011;15787;49.662;10.162;2023-03-01T01:32:56;30.52;;;12.18;;
28587;SDS011;15787;49.662;10.162;2023-03-01T01:35:29;22.23;;;10.90;;
28587;SDS011;15787;49.662;10.162;2023-03-01T01:38:02;20.20;;;10.20;;
28587;SDS011;15787;49.662;10.162;2023-03-01T01:40:36;20.80;;;11.07;;
28587;SDS011;15787;49.662;10.162;2023-03-01T01:43:20;24.65;;;10.55;;
28587;SDS011;15787;49.662;10.162;2023-03-01T01:45:55;24.92;;;11.85;;
28587;SDS011;15787;49.662;10.162;2023-03-01T01:48:34;22.38;;;10.90;;
28587;SDS011;15787;49.662;10.162;2023-03-01T01:51:13;22.38;;;10.52;;
28587;SDS011;15787;49.662;10.162;2023-03-01T01:53:51;23.58;;;11.00;;
28587;SDS011;15787;49.662;10.162;2023-03-01T01:56:30;26.10;;;11.98;;
28587;SDS011;15787;49.662;10.162;2023-03-01T01:59:03;22.58;;;11.52;;
28587;SDS011;15787;49.662;10.162;2023-03-01T02:01:36;25.95;;;11.75;;
28587;SDS011;15787;49.662;10.162;2023-03-01T02:04:09;24.48;;;10.45;;
28587;SDS011;15787;49.662;10.162;2023-03-01T02:06:44;22.30;;;11.02;;
28587;SDS011;15787;49.662;10.162;2023-03-01T02:09:22;23.65;;;10.77;;
28587;SDS011;15787;49.662;10.162;2023-03-01T02:11:57;25.63;;;11.07;;
28587;SDS011;15787;49.662;10.162;2023-03-01T02:14:31;21.30;;;10.15;;
28587;SDS011;15787;49.662;10.162;2023-03-01T02:17:04;25.13;;;10.55;;
28587;SDS011;15787;49.662;10.162;2023-03-01T02:19:41;27.17;;;12.07;;
28587;SDS011;15787;49.662;10.162;2023-03-01T02:22:27;23.52;;;11.30;;
28587;SDS011;15787;49.662;10.162;2023-03-01T02:25:06;25.20;;;11.77;;
28587;SDS011;15787;49.662;10.162;2023-03-01T02:27:49;24.90;;;11.45;;
28587;SDS011;15787;49.662;10.162;2023-03-01T02:30:30;25.52;;;10.50;;
28587;SDS011;15787;49.662;10.162;2023-03-01T02:33:04;25.02;;;10.68;;
28587;SDS011;15787;49.662;10.162;2023-03-01T02:35:37;21.55;;;10.40;;
28587;SDS011;15787;49.662;10.162;2023-03-01T02:38:11;20.95;;;11.13;;
28587;SDS011;15787;49.662;10.162;2023-03-01T02:40:45;30.00;;;11.75;;
28587;SDS011;15787;49.662;10.162;2023-03-01T02:43:19;21.83;;;10.98;;
28587;SDS011;15787;49.662;10.162;2023-03-01T02:45:58;26.00;;;11.07;;
28587;SDS011;15787;49.662;10.162;2023-03-01T02:51:26;20.30;;;10.63;;
28587;SDS011;15787;49.662;10.162;2023-03-01T02:54:15;22.15;;;10.73;;
28587;SDS011;15787;49.662;10.162;2023-03-01T02:56:56;24.95;;;10.43;;
28587;SDS011;15787;49.662;10.162;2023-03-01T02:59:32;19.58;;;9.65;;
28587;SDS011;15787;49.662;10.162;2023-03-01T03:05:34;22.42;;;9.65;;
28587;SDS011;15787;49.662;10.162;2023-03-01T03:08:07;31.58;;;11.80;;
28587;SDS011;15787;49.662;10.162;2023-03-01T03:10:41;24.95;;;11.38;;
28587;SDS011;15787;49.662;10.162;2023-03-01T03:13:15;35.92;;;12.30;;
28587;SDS011;15787;49.662;10.162;2023-03-01T03:15:48;28.17;;;13.43;;
28587;SDS011;15787;49.662;10.162;2023-03-01T03:18:23;29.92;;;13.27;;
28587;SDS011;15787;49.662;10.162;2023-03-01T03:20:58;30.67;;;12.48;;
28587;SDS011;15787;49.662;10.162;2023-03-01T03:23:31;30.63;;;11.88;;
28587;SDS011;15787;49.662;10.162;2023-03-01T03:26:04;24.70;;;11.07;;
28587;SDS011;15787;49.662;10.162;2023-03-01T03:28:38;22.55;;;10.40;;
28587;SDS011;15787;49.662;10.162;2023-03-01T03:31:11;22.35;;;11.43;;
28587;SDS011;15787;49.662;10.162;2023-03-01T03:33:45;25.17;;;10.93;;
28587;SDS011;15787;49.662;10.162;2023-03-01T03:36:22;23.67;;;11.02;;
28587;SDS011;15787;49.662;10.162;2023-03-01T03:38:56;25.52;;;11.60;;
28587;SDS011;15787;49.662;10.162;2023-03-01T03:41:29;26.83;;;12.43;;
28587;SDS011;15787;49.662;10.162;2023-03-01T03:44:02;26.15;;;10.38;;
28587;SDS011;15787;49.662;10.162;2023-03-01T03:46:35;26.50;;;11.18;;
28587;SDS011;15787;49.662;10.162;2023-03-01T03:49:09;22.23;;;10.70;;
28587;SDS011;15787;49.662;10.162;2023-03-01T03:51:42;23.92;;;11.57;;
28587;SDS011;15787;49.662;10.162;2023-03-01T03:54:17;23.80;;;10.82;;
28587;SDS011;15787;49.662;10.162;2023-03-01T03:56:50;26.15;;;11.07;;
28587;SDS011;15787;49.662;10.162;2023-03-01T03:59:23;24.55;;;10.88;;
28587;SDS011;15787;49.662;10.162;2023-03-01T04:01:56;28.13;;;10.93;;
28587;SDS011;15787;49.662;10.162;2023-03-01T04:04:31;19.50;;;10.10;;
28587;SDS011;15787;49.662;10.162;2023-03-01T04:07:05;25.17;;;12.02;;
28587;SDS011;15787;49.662;10.162;2023-03-01T04:09:38;22.83;;;10.68;;
28587;SDS011;15787;49.662;10.162;2023-03-01T04:12:10;30.35;;;12.27;;
28587;SDS011;15787;49.662;10.162;2023-03-01T04:14:43;23.48;;;11.15;;
28587;SDS011;15787;49.662;10.162;2023-03-01T04:17:19;36.92;;;12.65;;
28587;SDS011;15787;49.662;10.162;2023-03-01T04:19:53;31.52;;;13.20;;
28587;SDS011;15787;49.662;10.162;2023-03-01T04:22:25;27.25;;;12.75;;
28587;SDS011;15787;49.662;10.162;2023-03-01T04:25:00;22.75;;;11.32;;
28587;SDS011;15787;49.662;10.162;2023-03-01T04:27:37;24.45;;;11.32;;
28587;SDS011;15787;49.662;10.162;2023-03-01T04:30:10;25.25;;;11.13;;
28587;SDS011;15787;49.662;10.162;2023-03-01T04:32:44;28.42;;;11.95;;
28587;SDS011;15787;49.662;10.162;2023-03-01T04:35:18;28.25;;;12.30;;
28587;SDS011;15787;49.662;10.162;2023-03-01T04:37:51;25.13;;;10.73;;
28587;SDS011;15787;49.662;10.162;2023-03-01T04:40:24;25.45;;;11.20;;
28587;SDS011;15787;49.662;10.162;2023-03-01T04:42:58;23.80;;;11.00;;
28587;SDS011;15787;49.662;10.162;2023-03-01T04:45:31;24.63;;;11.30;;
28587;SDS011;15787;49.662;10.162;2023-03-01T04:48:06;26.38;;;10.95;;
28587;SDS011;15787;49.662;10.162;2023-03-01T04:50:40;25.95;;;12.15;;
28587;SDS011;15787;49.662;10.162;2023-03-01T04:53:13;27.25;;;11.73;;
28587;SDS011;15787;49.662;10.162;2023-03-01T04:55:46;28.05;;;11.55;;
28587;SDS011;15787;49.662;10.162;2023-03-01T04:58:19;28.27;;;12.48;;
28587;SDS011;15787;49.662;10.162;2023-03-01T05:00:52;29.95;;;12.88;;
28587;SDS011;15787;49.662;10.162;2023-03-01T05:03:26;29.17;;;12.52;;
28587;SDS011;15787;49.662;10.162;2023-03-01T05:06:01;28.65;;;13.32;;
28587;SDS011;15787;49.662;10.162;2023-03-01T05:08:34;32.03;;;13.38;;
28587;SDS011;15787;49.662;10.162;2023-03-01T05:11:09;32.47;;;15.35;;
28587;SDS011;15787;49.662;10.162;2023-03-01T05:13:43;32.40;;;16.10;;
28587;SDS011;15787;49.662;10.162;2023-03-01T05:16:15;30.15;;;14.48;;
28587;SDS011;15787;49.662;10.162;2023-03-01T05:18:49;28.73;;;13.18;;
28587;SDS011;15787;49.662;10.162;2023-03-01T05:21:24;29.80;;;13.07;;
28587;SDS011;15787;49.662;10.162;2023-03-01T05:23:57;29.23;;;13.50;;
28587;SDS011;15787;49.662;10.162;2023-03-01T05:26:30;33.13;;;13.57;;
28587;SDS011;15787;49.662;10.162;2023-03-01T05:29:04;29.33;;;13.32;;
28587;SDS011;15787;49.662;10.162;2023-03-01T05:31:37;31.65;;;13.90;;
28587;SDS011;15787;49.662;10.162;2023-03-01T05:34:10;30.20;;;12.77;;
28587;SDS011;15787;49.662;10.162;2023-03-01T05:36:45;28.83;;;12.18;;
28587;SDS011;15787;49.662;10.162;2023-03-01T05:39:19;26.73;;;12.70;;
28587;SDS011;15787;49.662;10.162;2023-03-01T05:41:54;34.25;;;12.73;;
28587;SDS011;15787;49.662;10.162;2023-03-01T05:44:28;23.75;;;11.18;;
28587;SDS011;15787;49.662;10.162;2023-03-01T05:47:02;33.30;;;11.85;;
28587;SDS011;15787;49.662;10.162;2023-03-01T05:49:35;25.30;;;12.52;;
28587;SDS011;15787;49.662;10.162;2023-03-01T05:52:11;32.50;;;13.60;;
28587;SDS011;15787;49.662;10.162;2023-03-01T05:54:44;42.88;;;15.77;;
28587;SDS011;15787;49.662;10.162;2023-03-01T05:57:17;40.50;;;16.98;;
28587;SDS011;15787;49.662;10.162;2023-03-01T05:59:50;36.85;;;15.43;;
28587;SDS011;15787;49.662;10.162;2023-03-01T06:02:23;30.70;;;14.13;;
28587;SDS011;15787;49.662;10.162;2023-03-01T06:04:56;29.98;;;13.38;;
28587;SDS011;15787;49.662;10.162;2023-03-01T06:07:30;32.63;;;13.68;;
28587;SDS011;15787;49.662;10.162;2023-03-01T06:10:04;28.08;;;12.85;;
28587;SDS011;15787;49.662;10.162;2023-03-01T06:12:39;36.47;;;13.48;;
28587;SDS011;15787;49.662;10.162;2023-03-01T06:15:14;28.83;;;12.90;;
28587;SDS011;15787;49.662;10.162;2023-03-01T06:17:48;35.80;;;13.85;;
28587;SDS011;15787;49.662;10.162;2023-03-01T06:20:22;29.08;;;13.63;;
28587;SDS011;15787;49.662;10.162;2023-03-01T06:22:58;32.80;;;13.45;;
28587;SDS011;15787;49.662;10.162;2023-03-01T06:25:32;30.17;;;13.57;;
28587;SDS011;15787;49.662;10.162;2023-03-01T06:28:05;28.55;;;13.50;;
28587;SDS011;15787;49.662;10.162;2023-03-01T06:30:38;31.13;;;13.05;;
28587;SDS011;15787;49.662;10.162;2023-03-01T06:33:11;28.98;;;13.02;;
28587;SDS011;15787;49.662;10.162;2023-03-01T06:35:44;33.40;;;14.10;;
28587;SDS011;15787;49.662;10.162;2023-03-01T06:38:18;36.47;;;15.55;;
28587;SDS011;15787;49.662;10.162;2023-03-01T06:40:51;29.45;;;13.80;;
28587;SDS011;15787;49.662;10.162;2023-03-01T06:43:26;29.08;;;13.70;;
28587;SDS011;15787;49.662;10.162;2023-03-01T06:45:59;27.95;;;12.30;;
28587;SDS011;15787;49.662;10.162;2023-03-01T06:48:32;28.65;;;13.68;;
28587;SDS011;15787;49.662;10.162;2023-03-01T06:51:06;34.05;;;14.63;;
28587;SDS011;15787;49.662;10.162;2023-03-01T06:53:40;33.88;;;14.50;;
28587;SDS011;15787;49.662;10.162;2023-03-01T06:56:13;38.70;;;14.57;;
28587;SDS011;15787;49.662;10.162;2023-03-01T06:58:46;31.08;;;15.00;;
28587;SDS011;15787;49.662;10.162;2023-03-01T07:01:19;41.58;;;16.25;;
28587;SDS011;15787;49.662;10.162;2023-03-01T07:03:53;33.72;;;16.27;;
28587;SDS011;15787;49.662;10.162;2023-03-01T07:06:26;29.13;;;14.50;;
28587;SDS011;15787;49.662;10.162;2023-03-01T07:09:02;32.83;;;13.35;;
28587;SDS011;15787;49.662;10.162;2023-03-01T07:11:35;26.85;;;14.18;;
28587;SDS011;15787;49.662;10.162;2023-03-01T07:14:09;33.10;;;13.48;;
28587;SDS011;15787;49.662;10.162;2023-03-01T07:16:42;31.42;;;13.70;;
28587;SDS011;15787;49.662;10.162;2023-03-01T07:19:14;28.42;;;12.13;;
28587;SDS011;15787;49.662;10.162;2023-03-01T07:21:48;31.80;;;13.32;;
28587;SDS011;15787;49.662;10.162;2023-03-01T07:24:22;27.65;;;13.07;;
28587;SDS011;15787;49.662;10.162;2023-03-01T07:26:55;29.90;;;12.23;;
28587;SDS011;15787;49.662;10.162;2023-03-01T07:29:28;26.63;;;12.45;;
28587;SDS011;15787;49.662;10.162;2023-03-01T07:32:01;32.03;;;13.07;;
28587;SDS011;15787;49.662;10.162;2023-03-01T07:34:34;30.40;;;13.48;;
28587;SDS011;15787;49.662;10.162;2023-03-01T07:37:07;29.73;;;13.50;;
28587;SDS011;15787;49.662;10.162;2023-03-01T07:39:42;38.83;;;15.57;;
28587;SDS011;15787;49.662;10.162;2023-03-01T07:42:14;31.23;;;13.68;;
28587;SDS011;15787;49.662;10.162;2023-03-01T07:44:47;27.13;;;12.38;;
28587;SDS011;15787;49.662;10.162;2023-03-01T07:47:20;23.50;;;11.90;;
28587;SDS011;15787;49.662;10.162;2023-03-01T07:49:53;25.05;;;12.93;;
28587;SDS011;15787;49.662;10.162;2023-03-01T07:52:25;27.20;;;13.07;;
28587;SDS011;15787;49.662;10.162;2023-03-01T07:55:00;33.97;;;14.40;;
28587;SDS011;15787;49.662;10.162;2023-03-01T07:57:33;28.67;;;12.43;;
28587;SDS011;15787;49.662;10.162;2023-03-01T08:00:06;29.23;;;14.30;;
28587;SDS011;15787;49.662;10.162;2023-03-01T08:02:42;30.15;;;13.93;;
28587;SDS011;15787;49.662;10.162;2023-03-01T08:05:15;23.50;;;12.20;;
28587;SDS011;15787;49.662;10.162;2023-03-01T08:07:49;24.98;;;12.15;;
28587;SDS011;15787;49.662;10.162;2023-03-01T08:10:23;27.17;;;12.05;;
28587;SDS011;15787;49.662;10.162;2023-03-01T08:12:56;23.40;;;12.15;;
28587;SDS011;15787;49.662;10.162;2023-03-01T08:15:29;30.88;;;13.15;;
28587;SDS011;15787;49.662;10.162;2023-03-01T08:18:02;29.48;;;13.38;;
28587;SDS011;15787;49.662;10.162;2023-03-01T08:20:35;25.83;;;11.57;;
28587;SDS011;15787;49.662;10.162;2023-03-01T08:23:08;29.70;;;13.43;;
28587;SDS011;15787;49.662;10.162;2023-03-01T08:25:42;26.95;;;13.48;;
28587;SDS011;15787;49.662;10.162;2023-03-01T08:28:15;26.83;;;11.65;;
28587;SDS011;15787;49.662;10.162;2023-03-01T08:30:48;27.02;;;11.45;;
28587;SDS011;15787;49.662;10.162;2023-03-01T08:33:20;26.67;;;13.10;;
28587;SDS011;15787;49.662;10.162;2023-03-01T08:36:01;26.52;;;12.30;;
28587;SDS011;15787;49.662;10.162;2023-03-01T08:38:35;26.15;;;12.73;;
28587;SDS011;15787;49.662;10.162;2023-03-01T08:41:09;26.58;;;12.77;;
28587;SDS011;15787;49.662;10.162;2023-03-01T08:43:42;23.23;;;12.13;;
28587;SDS011;15787;49.662;10.162;2023-03-01T08:46:17;25.75;;;13.15;;
28587;SDS011;15787;49.662;10.162;2023-03-01T08:48:50;24.83;;;12.65;;
28587;SDS011;15787;49.662;10.162;2023-03-01T08:51:23;24.88;;;12.95;;
28587;SDS011;15787;49.662;10.162;2023-03-01T08:53:57;23.95;;;13.07;;
28587;SDS011;15787;49.662;10.162;2023-03-01T08:56:32;25.98;;;13.95;;
28587;SDS011;15787;49.662;10.162;2023-03-01T08:59:05;25.98;;;12.68;;
28587;SDS011;15787;49.662;10.162;2023-03-01T09:01:38;26.80;;;13.52;;
28587;SDS011;15787;49.662;10.162;2023-03-01T09:04:14;23.70;;;12.50;;
28587;SDS011;15787;49.662;10.162;2023-03-01T09:06:48;28.65;;;14.10;;
28587;SDS011;15787;49.662;10.162;2023-03-01T09:09:21;25.33;;;13.32;;
28587;SDS011;15787;49.662;10.162;2023-03-01T09:11:56;29.65;;;14.73;;
28587;SDS011;15787;49.662;10.162;2023-03-01T09:14:29;26.98;;;12.65;;
28587;SDS011;15787;49.662;10.162;2023-03-01T09:17:02;29.27;;;13.57;;
28587;SDS011;15787;49.662;10.162;2023-03-01T09:19:34;24.65;;;12.98;;
28587;SDS011;15787;49.662;10.162;2023-03-01T09:22:07;25.92;;;13.10;;
28587;SDS011;15787;49.662;10.162;2023-03-01T09:24:40;25.13;;;13.35;;
28587;SDS011;15787;49.662;10.162;2023-03-01T09:27:14;26.90;;;13.45;;
28587;SDS011;15787;49.662;10.162;2023-03-01T09:29:50;21.92;;;12.88;;
28587;SDS011;15787;49.662;10.162;2023-03-01T09:32:22;25.52;;;12.52;;
28587;SDS011;15787;49.662;10.162;2023-03-01T09:34:55;26.52;;;13.48;;
28587;SDS011;15787;49.662;10.162;2023-03-01T09:40:11;25.02;;;12.82;;
28587;SDS011;15787;49.662;10.162;2023-03-01T09:42:51;23.75;;;13.02;;
28587;SDS011;15787;49.662;10.162;2023-03-01T09:45:29;28.45;;;13.32;;
28587;SDS011;15787;49.662;10.162;2023-03-01T09:48:09;27.05;;;13.38;;
28587;SDS011;15787;49.662;10.162;2023-03-01T09:50:48;25.48;;;14.10;;
28587;SDS011;15787;49.662;10.162;2023-03-01T09:53:22;22.08;;;12.57;;
28587;SDS011;15787;49.662;10.162;2023-03-01T09:55:59;25.73;;;13.80;;
28587;SDS011;15787;49.662;10.162;2023-03-01T09:58:41;25.08;;;13.32;;
28587;SDS011;15787;49.662;10.162;2023-03-01T10:01:26;25.40;;;12.73;;
28587;SDS011;15787;49.662;10.162;2023-03-01T10:04:12;24.85;;;13.13;;
28587;SDS011;15787;49.662;10.162;2023-03-01T10:07:02;25.70;;;12.43;;
28587;SDS011;15787;49.662;10.162;2023-03-01T10:09:50;26.73;;;13.82;;
28587;SDS011;15787;49.662;10.162;2023-03-01T10:12:24;26.80;;;14.65;;
28587;SDS011;15787;49.662;10.162;2023-03-01T10:15:05;25.10;;;12.75;;
28587;SDS011;15787;49.662;10.162;2023-03-01T10:17:44;25.45;;;12.73;;
28587;SDS011;15787;49.662;10.162;2023-03-01T10:20:23;21.90;;;12.88;;
28587;SDS011;15787;49.662;10.162;2023-03-01T10:22:57;24.60;;;13.50;;
28587;SDS011;15787;49.662;10.162;2023-03-01T10:25:36;24.17;;;14.30;;
28587;SDS011;15787;49.662;10.162;2023-03-01T10:28:17;23.92;;;13.02;;
28587;SDS011;15787;49.662;10.162;2023-03-01T10:30:58;25.52;;;12.50;;
28587;SDS011;15787;49.662;10.162;2023-03-01T10:33:32;27.40;;;14.00;;
28587;SDS011;15787;49.662;10.162;2023-03-01T10:36:10;25.35;;;14.10;;
28587;SDS011;15787;49.662;10.162;2023-03-01T10:38:47;27.85;;;14.02;;
28587;SDS011;15787;49.662;10.162;2023-03-01T10:41:24;25.65;;;13.23;;
28587;SDS011;15787;49.662;10.162;2023-03-01T10:44:01;23.45;;;12.80;;
28587;SDS011;15787;49.662;10.162;2023-03-01T10:46:36;23.85;;;12.15;;
28587;SDS011;15787;49.662;10.162;2023-03-01T10:49:13;24.02;;;14.25;;
28587;SDS011;15787;49.662;10.162;2023-03-01T10:51:48;22.60;;;12.85;;
28587;SDS011;15787;49.662;10.162;2023-03-01T10:54:22;24.73;;;12.65;;
28587;SDS011;15787;49.662;10.162;2023-03-01T10:57:00;23.27;;;13.07;;
28587;SDS011;15787;49.662;10.162;2023-03-01T10:59:36;24.27;;;13.93;;
28587;SDS011;15787;49.662;10.162;2023-03-01T11:02:16;25.88;;;13.82;;
28587;SDS011;15787;49.662;10.162;2023-03-01T11:04:57;26.50;;;13.68;;
28587;SDS011;15787;49.662;10.162;2023-03-01T11:07:31;22.80;;;13.30;;
28587;SDS011;15787;49.662;10.162;2023-03-01T11:10:21;24.38;;;13.35;;
28587;SDS011;15787;49.662;10.162;2023-03-01T11:13:05;24.10;;;14.02;;
28587;SDS011;15787;49.662;10.162;2023-03-01T11:15:39;25.73;;;13.63;;
28587;SDS011;15787;49.662;10.162;2023-03-01T11:18:20;26.83;;;12.45;;
28587;SDS011;15787;49.662;10.162;2023-03-01T11:21:15;22.55;;;12.25;;
28587;SDS011;15787;49.662;10.162;2023-03-01T11:23:48;24.92;;;13.32;;
28587;SDS011;15787;49.662;10.162;2023-03-01T11:26:21;22.85;;;12.80;;
28587;SDS011;15787;49.662;10.162;2023-03-01T11:28:56;24.42;;;13.68;;
28587;SDS011;15787;49.662;10.162;2023-03-01T11:31:34;23.40;;;12.85;;
28587;SDS011;15787;49.662;10.162;2023-03-01T11:34:16;24.53;;;14.13;;
28587;SDS011;15787;49.662;10.162;2023-03-01T11:36:58;22.98;;;12.07;;
28587;SDS011;15787;49.662;10.162;2023-03-01T11:39:36;24.33;;;12.88;;
28587;SDS011;15787;49.662;10.162;2023-03-01T11:42:15;28.38;;;12.93;;
28587;SDS011;15787;49.662;10.162;2023-03-01T11:44:52;20.60;;;13.23;;
28587;SDS011;15787;49.662;10.162;2023-03-01T11:47:31;26.02;;;13.88;;
28587;SDS011;15787;49.662;10.162;2023-03-01T11:50:18;24.73;;;13.32;;
28587;SDS011;15787;49.662;10.162;2023-03-01T11:53:01;20.60;;;12.00;;
28587;SDS011;15787;49.662;10.162;2023-03-01T11:55:59;22.70;;;13.05;;
28587;SDS011;15787;49.662;10.162;2023-03-01T11:58:52;22.67;;;12.73;;
28587;SDS011;15787;49.662;10.162;2023-03-01T12:01:59;22.58;;;12.52;;
28587;SDS011;15787;49.662;10.162;2023-03-01T12:04:52;27.92;;;14.38;;
28587;SDS011;15787;49.662;10.162;2023-03-01T12:07:48;21.13;;;12.80;;
28587;SDS011;15787;49.662;10.162;2023-03-01T12:10:28;23.77;;;13.55;;
28587;SDS011;15787;49.662;10.162;2023-03-01T12:13:16;22.55;;;13.40;;
28587;SDS011;15787;49.662;10.162;2023-03-01T12:16:07;20.63;;;12.93;;
28587;SDS011;15787;49.662;10.162;2023-03-01T12:22:13;22.27;;;12.52;;
28587;SDS011;15787;49.662;10.162;2023-03-01T12:28:03;24.77;;;13.98;;
28587;SDS011;15787;49.662;10.162;2023-03-01T12:30:49;24.67;;;12.80;;
28587;SDS011;15787;49.662;10.162;2023-03-01T12:33:48;24.13;;;12.90;;
28587;SDS011;15787;49.662;10.162;2023-03-01T12:36:31;25.15;;;14.65;;
28587;SDS011;15787;49.662;10.162;2023-03-01T12:39:19;23.17;;;13.17;;
28587;SDS011;15787;49.662;10.162;2023-03-01T12:42:07;21.00;;;12.32;;
28587;SDS011;15787;49.662;10.162;2023-03-01T12:44:57;21.55;;;12.88;;
28587;SDS011;15787;49.662;10.162;2023-03-01T12:47:50;21.48;;;11.90;;
28587;SDS011;15787;49.662;10.162;2023-03-01T12:50:36;21.48;;;12.88;;
28587;SDS011;15787;49.662;10.162;2023-03-01T12:53:17;21.75;;;12.70;;
28587;SDS011;15787;49.662;10.162;2023-03-01T12:55:56;24.15;;;14.13;;
28587;SDS011;15787;49.662;10.162;2023-03-01T12:58:34;21.92;;;13.40;;
28587;SDS011;15787;49.662;10.162;2023-03-01T13:01:22;23.73;;;12.85;;
28587;SDS011;15787;49.662;10.162;2023-03-01T13:04:18;22.38;;;13.32;;
28587;SDS011;15787;49.662;10.162;2023-03-01T13:10:06;23.13;;;12.77;;
28587;SDS011;15787;49.662;10.162;2023-03-01T13:12:51;21.48;;;12.55;;
28587;SDS011;15787;49.662;10.162;2023-03-01T13:15:35;19.77;;;12.77;;
28587;SDS011;15787;49.662;10.162;2023-03-01T13:18:27;22.77;;;12.75;;
28587;SDS011;15787;49.662;10.162;2023-03-01T13:21:02;22.15;;;12.60;;
28587;SDS011;15787;49.662;10.162;2023-03-01T13:23:37;22.25;;;12.35;;
28587;SDS011;15787;49.662;10.162;2023-03-01T13:26:12;21.02;;;11.98;;
28587;SDS011;15787;49.662;10.162;2023-03-01T13:28:49;23.67;;;12.60;;
28587;SDS011;15787;49.662;10.162;2023-03-01T13:34:42;18.65;;;11.88;;
28587;SDS011;15787;49.662;10.162;2023-03-01T13:37:27;19.38;;;12.18;;
28587;SDS011;15787;49.662;10.162;2023-03-01T13:46:07;21.98;;;11.95;;
28587;SDS011;15787;49.662;10.162;2023-03-01T13:48:45;20.87;;;11.77;;
28587;SDS011;15787;49.662;10.162;2023-03-01T13:51:24;21.90;;;12.32;;
28587;SDS011;15787;49.662;10.162;2023-03-01T13:54:00;22.35;;;12.60;;
28587;SDS011;15787;49.662;10.162;2023-03-01T13:56:33;22.00;;;11.90;;
28587;SDS011;15787;49.662;10.162;2023-03-01T13:59:12;21.73;;;12.40;;
28587;SDS011;15787;49.662;10.162;2023-03-01T14:01:51;22.23;;;12.43;;
28587;SDS011;15787;49.662;10.162;2023-03-01T14:04:25;23.42;;;12.02;;
28587;SDS011;15787;49.662;10.162;2023-03-01T14:07:12;23.88;;;12.88;;
28587;SDS011;15787;49.662;10.162;2023-03-01T14:09:51;21.13;;;12.43;;
28587;SDS011;15787;49.662;10.162;2023-03-01T14:12:35;19.48;;;11.38;;
28587;SDS011;15787;49.662;10.162;2023-03-01T14:15:18;18.05;;;10.82;;
28587;SDS011;15787;49.662;10.162;2023-03-01T14:17:55;21.10;;;12.18;;
28587;SDS011;15787;49.662;10.162;2023-03-01T14:20:38;20.58;;;11.80;;
28587;SDS011;15787;49.662;10.162;2023-03-01T14:23:15;18.50;;;11.75;;
28587;SDS011;15787;49.662;10.162;2023-03-01T14:25:52;20.40;;;11.95;;
28587;SDS011;15787;49.662;10.162;2023-03-01T14:28:27;21.75;;;11.75;;
28587;SDS011;15787;49.662;10.162;2023-03-01T14:34:17;21.27;;;11.15;;
28587;SDS011;15787;49.662;10.162;2023-03-01T14:36:51;20.83;;;12.02;;
28587;SDS011;15787;49.662;10.162;2023-03-01T14:39:26;21.80;;;12.32;;
28587;SDS011;15787;49.662;10.162;2023-03-01T14:41:59;22.17;;;12.27;;
28587;SDS011;15787;49.662;10.162;2023-03-01T14:44:46;21.70;;;11.88;;
28587;SDS011;15787;49.662;10.162;2023-03-01T14:47:24;21.83;;;12.27;;
28587;SDS011;15787;49.662;10.162;2023-03-01T14:50:00;20.15;;;11.77;;
28587;SDS011;15787;49.662;10.162;2023-03-01T14:52:37;19.75;;;12.07;;
28587;SDS011;15787;49.662;10.162;2023-03-01T14:55:15;18.42;;;11.73;;
28587;SDS011;15787;49.662;10.162;2023-03-01T14:57:50;23.80;;;12.00;;
28587;SDS011;15787;49.662;10.162;2023-03-01T15:00:24;19.30;;;11.82;;
28587;SDS011;15787;49.662;10.162;2023-03-01T15:03:00;18.70;;;11.25;;
28587;SDS011;15787;49.662;10.162;2023-03-01T15:05:41;19.58;;;10.90;;
28587;SDS011;15787;49.662;10.162;2023-03-01T15:08:16;16.85;;;10.80;;
28587;SDS011;15787;49.662;10.162;2023-03-01T15:10:59;17.55;;;9.90;;
28587;SDS011;15787;49.662;10.162;2023-03-01T15:13:34;20.63;;;11.27;;
28587;SDS011;15787;49.662;10.162;2023-03-01T15:16:09;18.63;;;10.65;;
28587;SDS011;15787;49.662;10.162;2023-03-01T15:18:45;20.83;;;11.63;;
28587;SDS011;15787;49.662;10.162;2023-03-01T15:21:21;19.98;;;11.82;;
28587;SDS011;15787;49.662;10.162;2023-03-01T15:23:58;21.35;;;10.82;;
28587;SDS011;15787;49.662;10.162;2023-03-01T15:26:37;18.83;;;10.52;;
28587;SDS011;15787;49.662;10.162;2023-03-01T15:29:15;20.35;;;11.88;;
28587;SDS011;15787;49.662;10.162;2023-03-01T15:31:54;18.88;;;10.93;;